Airport View

Enter AWOS ICAO identifier for current METAR.

ex. KFNL

KFFC 040553Z AUTO 00000KT 7SM OVC006 21/21 A2997 RMK AO2 SLP144 T02110211 10244 20211 58001

4 Aug 2020 05:58

Frequency: 118.525

Phone: 770-487-1610

Other Area AWOS: KCCO - KHMP - K6A2 - KATL

TAF AMD KATL 040341Z 0404/0506 10008KT P6SM SCT100 FM040900 25002KT 5SM BR SCT015 SCT050 FM041400 25005KT P6SM SCT025 SCT050 FM041800 25007KT P6SM SCT040 SCT250